createdAt,value
2023-04-15T00:00:31.861Z,7.3
2023-04-15T00:01:32.454Z,7.0
2023-04-15T00:02:33.219Z,7.2
2023-04-15T00:03:33.949Z,7.1
2023-04-15T00:04:34.622Z,7.2
2023-04-15T00:05:35.165Z,7.2
2023-04-15T00:06:35.762Z,7.4
2023-04-15T00:07:36.375Z,7.6
2023-04-15T00:08:36.968Z,8.0
2023-04-15T00:09:37.564Z,7.9
2023-04-15T00:10:38.153Z,7.7
2023-04-15T00:11:39.319Z,7.8
2023-04-15T00:12:39.826Z,7.8
2023-04-15T00:13:40.445Z,8.2
2023-04-15T00:14:41.029Z,7.7
2023-04-15T00:15:41.624Z,7.8
2023-04-15T00:16:42.243Z,7.5
2023-04-15T00:17:42.846Z,7.4
2023-04-15T00:18:43.423Z,8.0
2023-04-15T00:19:44.024Z,6.9
2023-04-15T00:20:44.633Z,7.5
2023-04-15T00:21:45.226Z,6.9
2023-04-15T00:22:45.842Z,7.8
2023-04-15T00:23:46.439Z,7.6
2023-04-15T00:24:47.052Z,7.2
2023-04-15T00:25:47.644Z,7.6
2023-04-15T00:26:48.238Z,7.2
2023-04-15T00:27:48.835Z,7.3
2023-04-15T00:28:49.432Z,6.8
2023-04-15T00:29:50.021Z,6.4
2023-04-15T00:30:50.677Z,6.6
2023-04-15T00:31:51.223Z,6.4
2023-04-15T00:32:51.861Z,6.4
2023-04-15T00:33:52.430Z,5.9
2023-04-15T00:34:53.027Z,6.2
2023-04-15T00:35:53.627Z,6.4
2023-04-15T00:36:54.215Z,5.9
2023-04-15T00:37:54.814Z,5.7
2023-04-15T00:38:55.404Z,6.2
2023-04-15T00:39:55.999Z,6.0
2023-04-15T00:40:56.637Z,5.7
2023-04-15T00:41:57.225Z,6.9
2023-04-15T00:42:57.818Z,6.0
2023-04-15T00:43:58.428Z,5.7
2023-04-15T00:44:59.005Z,5.8
2023-04-15T00:45:59.636Z,5.6
2023-04-15T00:47:00.210Z,5.7
2023-04-15T00:48:00.956Z,5.9
2023-04-15T00:49:01.784Z,5.8
2023-04-15T00:50:02.515Z,5.8
2023-04-15T00:51:03.114Z,6.4
2023-04-15T00:52:03.709Z,6.7
2023-04-15T00:53:04.313Z,6.6
2023-04-15T00:54:04.905Z,5.3
2023-04-15T00:55:05.502Z,6.1
2023-04-15T00:56:06.092Z,5.6
2023-04-15T00:57:06.690Z,5.8
2023-04-15T00:58:07.299Z,5.6
2023-04-15T00:59:07.894Z,6.3
2023-04-15T01:00:08.488Z,5.8
2023-04-15T01:01:09.195Z,6.3
2023-04-15T01:02:09.808Z,7.4
2023-04-15T01:03:10.513Z,6.0
2023-04-15T01:04:11.100Z,6.0
2023-04-15T01:05:11.748Z,5.7
2023-04-15T01:06:12.356Z,6.4
2023-04-15T01:07:12.947Z,6.6
2023-04-15T01:08:13.543Z,6.0
2023-04-15T01:09:14.135Z,6.3
2023-04-15T01:10:14.739Z,6.5
2023-04-15T01:11:15.351Z,6.2
2023-04-15T01:12:15.953Z,6.0
2023-04-15T01:13:16.530Z,6.2
2023-04-15T01:14:17.122Z,6.8
2023-04-15T01:15:17.719Z,6.0
2023-04-15T01:16:18.357Z,6.3
2023-04-15T01:17:18.934Z,6.9
2023-04-15T01:18:19.525Z,6.6
2023-04-15T01:19:20.208Z,6.5
2023-04-15T01:20:20.799Z,6.2
2023-04-15T01:21:21.412Z,6.1
2023-04-15T01:22:22.031Z,6.5
2023-04-15T01:23:22.617Z,6.9
2023-04-15T01:24:23.214Z,6.0
2023-04-15T01:25:23.811Z,6.6
2023-04-15T01:26:24.423Z,7.0
2023-04-15T01:27:25.013Z,6.6
2023-04-15T01:28:25.606Z,7.2
2023-04-15T01:29:26.197Z,7.1
2023-04-15T01:30:26.792Z,6.7
2023-04-15T01:31:27.507Z,6.8
2023-04-15T01:32:28.102Z,6.8
2023-04-15T01:33:28.665Z,7.1
2023-04-15T01:34:29.255Z,6.7
2023-04-15T01:35:29.852Z,6.6
2023-04-15T01:36:30.446Z,7.3
2023-04-15T01:37:31.039Z,7.4
2023-04-15T01:38:31.629Z,7.2
2023-04-15T01:39:32.252Z,7.8
2023-04-15T01:40:32.831Z,7.5
2023-04-15T01:41:33.435Z,7.3
2023-04-15T01:42:34.018Z,7.8
2023-04-15T01:43:34.614Z,8.0
2023-04-15T01:44:35.208Z,7.3
2023-04-15T01:45:35.820Z,7.9
2023-04-15T01:46:36.517Z,8.2
2023-04-15T01:47:37.106Z,8.6
2023-04-15T01:48:37.653Z,7.7
2023-04-15T01:49:38.268Z,8.4
2023-04-15T01:50:38.880Z,8.2
2023-04-15T01:51:39.471Z,7.6
2023-04-15T01:52:40.075Z,9.0
2023-04-15T01:53:40.686Z,9.2
2023-04-15T01:54:41.254Z,8.7
2023-04-15T01:55:41.847Z,8.7
2023-04-15T01:56:42.473Z,9.3
2023-04-15T01:57:43.055Z,8.4
2023-04-15T01:58:43.649Z,9.2
2023-04-15T01:59:44.248Z,9.2
2023-04-15T02:00:44.863Z,8.9
2023-04-15T02:01:45.454Z,8.7
2023-04-15T02:02:46.146Z,9.7
2023-04-15T02:03:46.836Z,8.7
2023-04-15T02:04:47.363Z,9.9
2023-04-15T02:05:47.958Z,8.4
2023-04-15T02:06:48.575Z,9.2
2023-04-15T02:07:49.184Z,9.4
2023-04-15T02:08:49.776Z,8.8
2023-04-15T02:09:50.377Z,9.6
2023-04-15T02:10:50.968Z,9.6
2023-04-15T02:11:51.591Z,8.7
2023-04-15T02:12:52.200Z,10.0
2023-04-15T02:13:52.813Z,9.5
2023-04-15T02:14:53.408Z,9.4
2023-04-15T02:15:54.003Z,9.9
2023-04-15T02:16:54.643Z,8.9
2023-04-15T02:17:55.358Z,9.3
2023-04-15T02:18:55.860Z,9.8
2023-04-15T02:19:56.467Z,9.4
2023-04-15T02:20:57.051Z,9.7
2023-04-15T02:21:57.666Z,9.5
2023-04-15T02:22:58.279Z,9.9
2023-04-15T02:23:58.870Z,8.8
2023-04-15T02:24:59.467Z,9.6
2023-04-15T02:26:00.073Z,9.6
2023-04-15T02:27:00.654Z,9.3
2023-04-15T02:28:01.256Z,9.2
2023-04-15T02:29:01.951Z,9.7
2023-04-15T02:30:02.594Z,9.6
2023-04-15T02:31:03.188Z,10.2
2023-04-15T02:32:03.824Z,10.3
2023-04-15T02:33:04.395Z,10.4
2023-04-15T02:34:04.987Z,10.2
2023-04-15T02:35:05.589Z,11.9
2023-04-15T02:36:06.182Z,10.5
2023-04-15T02:37:06.770Z,9.9
2023-04-15T02:38:07.364Z,10.7
2023-04-15T02:39:07.960Z,10.2
2023-04-15T02:40:08.557Z,10.8
2023-04-15T02:41:09.152Z,10.8
2023-04-15T02:42:09.804Z,10.8
2023-04-15T02:43:10.372Z,10.4
2023-04-15T02:44:11.490Z,10.7
2023-04-15T02:45:12.119Z,10.6
2023-04-15T02:46:12.789Z,11.0
2023-04-15T02:47:13.362Z,10.6
2023-04-15T02:48:13.959Z,11.0
2023-04-15T02:49:14.555Z,10.5
2023-04-15T02:50:15.169Z,10.6
2023-04-15T02:51:15.769Z,11.1
2023-04-15T02:52:16.400Z,11.6
2023-04-15T02:53:16.976Z,10.1
2023-04-15T02:54:17.566Z,11.1
2023-04-15T02:55:18.164Z,11.4
2023-04-15T02:56:18.755Z,10.7
2023-04-15T02:57:19.359Z,11.1
2023-04-15T02:58:19.953Z,10.8
2023-04-15T02:59:20.564Z,10.9
2023-04-15T03:00:21.163Z,11.1
2023-04-15T03:01:21.792Z,11.7
2023-04-15T03:02:22.436Z,11.9
2023-04-15T03:03:23.105Z,10.7
2023-04-15T03:04:23.696Z,11.4
2023-04-15T03:05:24.284Z,11.6
2023-04-15T03:06:24.906Z,11.5
2023-04-15T03:07:25.475Z,12.5
2023-04-15T03:08:26.070Z,11.6
2023-04-15T03:09:26.688Z,11.7
2023-04-15T03:10:27.261Z,11.6
2023-04-15T03:11:27.856Z,12.6
2023-04-15T03:12:28.452Z,12.4
2023-04-15T03:13:29.046Z,12.3
2023-04-15T03:14:29.642Z,13.0
2023-04-15T03:15:30.265Z,11.9
2023-04-15T03:16:30.849Z,12.5
2023-04-15T03:17:31.464Z,12.5
2023-04-15T03:18:32.043Z,12.6
2023-04-15T03:19:32.682Z,12.3
2023-04-15T03:20:33.340Z,12.8
2023-04-15T03:21:33.996Z,12.3
2023-04-15T03:22:34.592Z,12.2
2023-04-15T03:23:35.185Z,12.9
2023-04-15T03:24:35.780Z,12.4
2023-04-15T03:25:36.377Z,12.9
2023-04-15T03:26:36.973Z,13.0
2023-04-15T03:27:37.568Z,13.3
2023-04-15T03:28:38.165Z,13.1
2023-04-15T03:29:38.761Z,11.8
2023-04-15T03:30:39.365Z,13.2
2023-04-15T03:31:40.031Z,12.9
2023-04-15T03:32:40.642Z,13.7
2023-04-15T03:33:41.221Z,12.9
2023-04-15T03:34:41.821Z,13.0
2023-04-15T03:35:42.412Z,12.6
2023-04-15T03:36:43.015Z,12.3
2023-04-15T03:37:43.612Z,13.2
2023-04-15T03:38:44.209Z,13.0
2023-04-15T03:39:44.807Z,13.7
2023-04-15T03:40:45.417Z,14.8
2023-04-15T03:41:46.024Z,14.9
2023-04-15T03:42:46.619Z,13.5
2023-04-15T03:43:47.203Z,13.7
2023-04-15T03:44:47.799Z,15.1
2023-04-15T03:45:48.415Z,14.4
2023-04-15T03:46:49.160Z,14.3
2023-04-15T03:47:49.890Z,14.8
2023-04-15T03:48:50.468Z,15.3
2023-04-15T03:49:51.059Z,14.9
2023-04-15T03:50:51.671Z,14.3
2023-04-15T03:51:52.269Z,14.5
2023-04-15T03:52:52.869Z,14.0
2023-04-15T03:53:53.460Z,14.7
2023-04-15T03:54:54.080Z,14.6
2023-04-15T03:55:54.673Z,14.9
2023-04-15T03:56:55.279Z,14.1
2023-04-15T03:57:55.865Z,13.2
2023-04-15T03:58:56.484Z,14.7
2023-04-15T03:59:57.093Z,15.0
2023-04-15T04:00:57.694Z,15.1
2023-04-15T04:01:58.512Z,14.8
2023-04-15T04:02:59.220Z,14.5
2023-04-15T04:03:59.994Z,14.8
2023-04-15T04:05:00.598Z,13.9
2023-04-15T04:06:01.195Z,14.8
2023-04-15T04:07:01.808Z,15.0
2023-04-15T04:08:02.421Z,15.4
2023-04-15T04:09:03.244Z,14.9
2023-04-15T04:10:03.961Z,15.6
2023-04-15T04:11:04.565Z,15.7
2023-04-15T04:12:05.161Z,14.7
2023-04-15T04:13:05.755Z,15.6
2023-04-15T04:14:06.354Z,14.4
2023-04-15T04:15:06.968Z,15.1
2023-04-15T04:16:07.603Z,14.2
2023-04-15T04:17:08.259Z,15.2
2023-04-15T04:18:08.816Z,14.7
2023-04-15T04:19:09.435Z,15.6
2023-04-15T04:20:10.033Z,16.1
2023-04-15T04:21:10.624Z,15.9
2023-04-15T04:22:11.220Z,16.0
2023-04-15T04:23:11.821Z,15.8
2023-04-15T04:24:12.440Z,15.4
2023-04-15T04:25:13.034Z,16.1
2023-04-15T04:26:13.633Z,16.1
2023-04-15T04:27:14.237Z,17.5
2023-04-15T04:28:14.846Z,15.9
2023-04-15T04:29:15.447Z,16.6
2023-04-15T04:30:16.040Z,16.2
2023-04-15T04:31:16.644Z,16.5
2023-04-15T04:32:17.239Z,16.5
2023-04-15T04:33:17.839Z,16.4
2023-04-15T04:34:18.438Z,17.8
2023-04-15T04:35:19.050Z,17.6
2023-04-15T04:36:19.654Z,18.7
2023-04-15T04:37:20.257Z,17.3
2023-04-15T04:38:20.865Z,16.9
2023-04-15T04:39:21.463Z,17.7
2023-04-15T04:40:22.060Z,18.1
2023-04-15T04:41:22.657Z,18.1
2023-04-15T04:42:23.254Z,17.5
2023-04-15T04:43:23.859Z,17.9
2023-04-15T04:44:24.469Z,18.1
2023-04-15T04:45:25.068Z,16.4
2023-04-15T04:46:25.666Z,16.3
2023-04-15T04:47:26.323Z,17.7
2023-04-15T04:48:26.897Z,17.4
2023-04-15T04:49:27.512Z,20.5
2023-04-15T04:50:28.110Z,17.2
2023-04-15T04:51:28.713Z,18.1
2023-04-15T04:52:29.313Z,17.6
2023-04-15T04:53:29.943Z,17.3
2023-04-15T04:54:30.554Z,17.2
2023-04-15T04:55:31.151Z,18.5
2023-04-15T04:56:31.749Z,17.7
2023-04-15T04:57:32.349Z,18.0
2023-04-15T04:58:32.950Z,17.9
2023-04-15T04:59:33.549Z,17.9
2023-04-15T05:00:34.182Z,17.3
2023-04-15T05:01:34.838Z,17.8
2023-04-15T05:02:35.532Z,17.9
2023-04-15T05:03:36.184Z,17.8
2023-04-15T05:04:36.842Z,18.9
2023-04-15T05:05:37.460Z,19.3
2023-04-15T05:06:38.080Z,18.2
2023-04-15T05:07:38.694Z,19.0
2023-04-15T05:08:40.482Z,18.9
2023-04-15T05:09:40.879Z,17.9
2023-04-15T05:10:41.472Z,18.6
2023-04-15T05:11:42.093Z,18.0
2023-04-15T05:12:42.692Z,18.3
2023-04-15T05:13:43.300Z,19.6
2023-04-15T05:14:43.916Z,19.2
2023-04-15T05:15:44.576Z,18.0
2023-04-15T05:16:45.128Z,19.1
2023-04-15T05:17:45.789Z,18.4
2023-04-15T05:18:46.356Z,18.2
2023-04-15T05:19:46.956Z,17.3
2023-04-15T05:20:47.558Z,18.5
2023-04-15T05:21:48.157Z,19.9
2023-04-15T05:22:48.773Z,19.4
2023-04-15T05:23:49.373Z,18.8
2023-04-15T05:24:49.992Z,17.8
2023-04-15T05:25:50.591Z,17.9
2023-04-15T05:26:51.192Z,17.7
2023-04-15T05:27:51.794Z,19.3
2023-04-15T05:28:52.392Z,18.7
2023-04-15T05:29:52.997Z,18.5
2023-04-15T05:30:53.604Z,19.0
2023-04-15T05:31:54.195Z,18.8
2023-04-15T05:32:54.826Z,19.4
2023-04-15T05:33:55.395Z,19.0
2023-04-15T05:34:55.996Z,18.2
2023-04-15T05:35:56.602Z,18.3
2023-04-15T05:36:57.196Z,17.7
2023-04-15T05:37:57.817Z,16.8
2023-04-15T05:38:58.561Z,19.2
2023-04-15T05:39:59.052Z,19.0
2023-04-15T05:40:59.650Z,18.6
2023-04-15T05:42:00.264Z,18.4
2023-04-15T05:43:00.852Z,18.0
2023-04-15T05:44:01.521Z,18.6
2023-04-15T05:45:02.176Z,18.1
2023-04-15T05:46:02.782Z,18.9
2023-04-15T05:47:03.342Z,19.0
2023-04-15T05:48:03.945Z,19.0
2023-04-15T05:49:04.563Z,19.8
2023-04-15T05:50:05.189Z,19.5
2023-04-15T05:51:05.784Z,18.9
2023-04-15T05:52:06.392Z,20.1
2023-04-15T05:53:07.001Z,19.9
2023-04-15T05:54:07.608Z,19.5
2023-04-15T05:55:08.213Z,19.2
2023-04-15T05:56:08.811Z,19.9
2023-04-15T05:57:09.405Z,20.2
2023-04-15T05:58:10.005Z,20.7
2023-04-15T05:59:10.607Z,20.7
2023-04-15T06:00:11.227Z,20.0
2023-04-15T06:01:11.830Z,19.7
2023-04-15T06:02:12.460Z,19.4
2023-04-15T06:03:13.082Z,20.4
2023-04-15T06:04:13.792Z,21.9
2023-04-15T06:05:14.377Z,20.2
2023-04-15T06:06:14.979Z,21.4
2023-04-15T06:07:15.607Z,19.3
2023-04-15T06:08:16.203Z,20.3
2023-04-15T06:09:16.824Z,20.5
2023-04-15T06:10:17.420Z,20.8
2023-04-15T06:11:18.022Z,19.8
2023-04-15T06:12:18.622Z,20.5
2023-04-15T06:13:19.225Z,21.0
2023-04-15T06:14:19.861Z,22.7
2023-04-15T06:15:20.516Z,20.9
2023-04-15T06:16:21.093Z,20.7
2023-04-15T06:17:21.679Z,22.1
2023-04-15T06:18:22.284Z,21.9
2023-04-15T06:19:22.892Z,21.9
2023-04-15T06:20:23.498Z,21.1
2023-04-15T06:21:24.097Z,21.8
2023-04-15T06:22:24.696Z,21.5
2023-04-15T06:23:26.420Z,20.9
2023-04-15T06:24:26.897Z,21.5
2023-04-15T06:25:27.510Z,20.9
2023-04-15T06:26:28.120Z,22.4
2023-04-15T06:27:28.731Z,22.7
2023-04-15T06:28:29.348Z,21.9
2023-04-15T06:29:29.976Z,22.8
2023-04-15T06:30:30.587Z,23.2
2023-04-15T06:31:31.221Z,22.5
2023-04-15T06:32:31.847Z,22.4
2023-04-15T06:33:32.442Z,22.5
2023-04-15T06:34:33.037Z,23.1
2023-04-15T06:35:33.659Z,22.5
2023-04-15T06:36:34.260Z,22.6
2023-04-15T06:37:34.879Z,22.8
2023-04-15T06:38:35.476Z,23.0
2023-04-15T06:39:36.078Z,23.0
2023-04-15T06:40:36.673Z,23.2
2023-04-15T06:41:37.280Z,22.8
2023-04-15T06:42:37.876Z,22.9
2023-04-15T06:43:38.476Z,24.4
2023-04-15T06:44:39.076Z,23.1
2023-04-15T06:45:39.692Z,22.9
2023-04-15T06:46:40.274Z,22.4
2023-04-15T06:47:40.956Z,22.7
2023-04-15T06:48:41.503Z,22.9
2023-04-15T06:49:42.107Z,21.4
2023-04-15T06:50:42.702Z,22.5
2023-04-15T06:51:43.357Z,21.6
2023-04-15T06:52:43.923Z,22.1
2023-04-15T06:53:44.525Z,22.3
2023-04-15T06:54:45.128Z,22.5
2023-04-15T06:55:45.748Z,24.4
2023-04-15T06:56:46.369Z,22.8
2023-04-15T06:57:46.970Z,22.7
2023-04-15T06:58:47.566Z,22.8
2023-04-15T06:59:48.189Z,23.2
2023-04-15T07:00:48.803Z,23.3
2023-04-15T07:01:49.427Z,24.5
2023-04-15T07:02:50.035Z,22.8
2023-04-15T07:03:50.646Z,22.7
2023-04-15T07:04:51.192Z,24.6
2023-04-15T07:05:51.828Z,23.5
2023-04-15T07:06:52.450Z,23.7
2023-04-15T07:07:53.030Z,24.0
2023-04-15T07:08:53.630Z,23.9
2023-04-15T07:09:54.235Z,24.1
2023-04-15T07:10:54.833Z,24.0
2023-04-15T07:11:55.441Z,23.1
2023-04-15T07:12:56.060Z,22.2
2023-04-15T07:13:56.661Z,21.5
2023-04-15T07:14:57.252Z,22.1
2023-04-15T07:15:57.854Z,23.1
2023-04-15T07:16:58.539Z,23.4
2023-04-15T07:17:59.134Z,21.7
2023-04-15T07:19:00.002Z,22.5
2023-04-15T07:20:00.800Z,23.3
2023-04-15T07:21:01.402Z,22.5
2023-04-15T07:22:02.003Z,22.5
2023-04-15T07:23:02.603Z,23.9
2023-04-15T07:24:03.223Z,22.4
2023-04-15T07:25:03.825Z,23.7
2023-04-15T07:26:04.423Z,22.4
2023-04-15T07:27:05.023Z,22.0
2023-04-15T07:28:05.621Z,24.3
2023-04-15T07:29:06.225Z,21.5
2023-04-15T07:30:06.826Z,21.3
2023-04-15T07:31:07.471Z,23.6
2023-04-15T07:32:08.030Z,22.8
2023-04-15T07:33:08.629Z,22.9
2023-04-15T07:34:09.237Z,23.3
2023-04-15T07:35:09.862Z,23.2
2023-04-15T07:36:10.451Z,24.1
2023-04-15T07:37:11.051Z,25.1
2023-04-15T07:38:11.654Z,24.1
2023-04-15T07:39:12.274Z,24.4
2023-04-15T07:40:12.855Z,23.2
2023-04-15T07:41:13.481Z,24.4
2023-04-15T07:42:14.081Z,24.7
2023-04-15T07:43:14.678Z,25.4
2023-04-15T07:44:15.280Z,25.0
2023-04-15T07:45:15.901Z,24.6
2023-04-15T07:46:16.617Z,23.8
2023-04-15T07:47:17.147Z,23.9
2023-04-15T07:48:17.791Z,25.0
2023-04-15T07:49:18.381Z,22.9
2023-04-15T07:50:18.980Z,20.7
2023-04-15T07:51:19.599Z,22.7
2023-04-15T07:52:20.230Z,22.7
2023-04-15T07:53:20.833Z,21.4
2023-04-15T07:54:21.451Z,22.1
2023-04-15T07:55:22.055Z,21.8
2023-04-15T07:56:22.657Z,22.0
2023-04-15T07:57:23.249Z,21.5
2023-04-15T07:58:23.852Z,22.5
2023-04-15T07:59:24.477Z,20.1
2023-04-15T08:00:25.079Z,20.9
2023-04-15T08:01:25.685Z,21.4
2023-04-15T08:02:26.538Z,21.2
2023-04-15T08:03:27.408Z,21.6
2023-04-15T08:04:28.235Z,21.8
2023-04-15T08:05:28.832Z,19.9
2023-04-15T08:06:29.435Z,19.0
2023-04-15T08:07:30.033Z,20.3
2023-04-15T08:08:30.634Z,19.8
2023-04-15T08:09:31.236Z,19.3
2023-04-15T08:10:31.839Z,19.2
2023-04-15T08:11:32.456Z,20.0
2023-04-15T08:12:33.060Z,18.7
2023-04-15T08:13:33.666Z,19.0
2023-04-15T08:14:34.285Z,19.3
2023-04-15T08:15:34.899Z,19.8
2023-04-15T08:16:35.551Z,19.4
2023-04-15T08:17:36.176Z,18.9
2023-04-15T08:18:36.745Z,17.3
2023-04-15T08:19:37.365Z,19.1
2023-04-15T08:20:37.992Z,18.4
2023-04-15T08:21:38.590Z,18.9
2023-04-15T08:22:39.213Z,18.2
2023-04-15T08:23:39.814Z,18.6
2023-04-15T08:24:40.421Z,18.9
2023-04-15T08:25:41.019Z,18.0
2023-04-15T08:26:41.642Z,16.6
2023-04-15T08:27:42.264Z,17.9
2023-04-15T08:28:42.865Z,18.1
2023-04-15T08:29:43.464Z,19.1
2023-04-15T08:30:44.069Z,16.7
2023-04-15T08:31:44.757Z,16.4
2023-04-15T08:32:45.394Z,17.5
2023-04-15T08:33:45.954Z,17.7
2023-04-15T08:34:46.558Z,16.5
2023-04-15T08:35:47.159Z,16.9
2023-04-15T08:36:47.757Z,17.3
2023-04-15T08:37:48.359Z,18.3
2023-04-15T08:38:48.961Z,16.7
2023-04-15T08:39:49.589Z,16.8
2023-04-15T08:40:50.189Z,18.3
2023-04-15T08:41:51.172Z,16.5
2023-04-15T08:42:51.779Z,18.6
2023-04-15T08:43:52.391Z,18.0
2023-04-15T08:44:52.998Z,18.9
2023-04-15T08:45:53.593Z,17.3
2023-04-15T08:46:54.244Z,17.7
2023-04-15T08:47:54.881Z,17.7
2023-04-15T08:48:55.534Z,16.9
2023-04-15T08:49:56.090Z,17.7
2023-04-15T08:50:56.699Z,16.1
2023-04-15T08:51:57.292Z,18.0
2023-04-15T08:52:57.893Z,17.8
2023-04-15T08:53:58.503Z,17.9
2023-04-15T08:54:59.104Z,17.7
2023-04-15T08:55:59.719Z,17.4
2023-04-15T08:57:00.329Z,16.2
2023-04-15T08:58:00.924Z,18.1
2023-04-15T08:59:01.794Z,17.9
2023-04-15T09:00:03.834Z,16.6
2023-04-15T09:01:04.180Z,17.0
2023-04-15T09:02:04.808Z,17.9
2023-04-15T09:03:05.461Z,17.4
2023-04-15T09:04:06.089Z,18.4
2023-04-15T09:05:06.701Z,18.0
2023-04-15T09:06:07.279Z,17.3
2023-04-15T09:07:07.875Z,17.9
2023-04-15T09:08:08.531Z,18.2
2023-04-15T09:09:09.127Z,16.5
2023-04-15T09:10:09.726Z,16.5
2023-04-15T09:11:10.334Z,17.2
2023-04-15T09:12:10.946Z,16.7
2023-04-15T09:13:11.551Z,17.3
2023-04-15T09:14:12.202Z,16.0
2023-04-15T09:15:12.823Z,17.2
2023-04-15T09:16:13.469Z,16.6
2023-04-15T09:17:14.067Z,15.1
2023-04-15T09:18:14.667Z,17.4
2023-04-15T09:19:15.258Z,15.9
2023-04-15T09:20:15.861Z,16.6
2023-04-15T09:21:16.474Z,16.6
2023-04-15T09:22:17.063Z,15.8
2023-04-15T09:23:17.709Z,15.0
2023-04-15T09:24:18.283Z,14.8
2023-04-15T09:25:18.884Z,15.2
2023-04-15T09:26:19.481Z,15.8
2023-04-15T09:27:20.084Z,15.2
2023-04-15T09:28:20.684Z,15.4
2023-04-15T09:29:21.289Z,15.5
2023-04-15T09:30:21.897Z,15.6
2023-04-15T09:31:22.576Z,15.6
2023-04-15T09:32:23.166Z,15.3
2023-04-15T09:33:23.752Z,14.9
2023-04-15T09:34:24.350Z,14.7
2023-04-15T09:35:24.953Z,14.6
2023-04-15T09:36:25.555Z,14.8
2023-04-15T09:37:32.452Z,13.2
2023-04-15T09:38:27.748Z,14.0
2023-04-15T09:39:28.350Z,13.1
2023-04-15T09:40:28.951Z,11.6
2023-04-15T09:41:29.554Z,14.4
2023-04-15T09:42:30.163Z,12.9
2023-04-15T09:43:30.762Z,11.7
2023-04-15T09:44:31.360Z,13.2
2023-04-15T09:45:31.979Z,12.8
2023-04-15T09:46:32.702Z,11.8
2023-04-15T09:47:33.353Z,11.5
2023-04-15T09:48:33.947Z,11.6
2023-04-15T09:49:34.588Z,12.5
2023-04-15T09:50:35.148Z,12.4
2023-04-15T09:51:35.750Z,12.0
2023-04-15T09:52:36.351Z,11.9
2023-04-15T09:53:36.950Z,11.9
2023-04-15T09:54:37.554Z,11.4
2023-04-15T09:55:38.173Z,12.0
2023-04-15T09:56:38.790Z,12.7
2023-04-15T09:57:39.386Z,11.3
2023-04-15T09:58:40.002Z,11.3
2023-04-15T09:59:40.626Z,11.0
2023-04-15T10:00:41.202Z,11.2
2023-04-15T10:01:41.834Z,11.8
2023-04-15T10:02:42.573Z,10.9
2023-04-15T10:03:43.315Z,10.9
2023-04-15T10:04:43.922Z,11.5
2023-04-15T10:05:44.525Z,11.9
2023-04-15T10:06:45.125Z,12.0
2023-04-15T10:07:45.758Z,11.4
2023-04-15T10:08:46.326Z,11.3
2023-04-15T10:09:46.935Z,11.3
2023-04-15T10:10:47.529Z,10.5
2023-04-15T10:11:48.133Z,12.2
2023-04-15T10:12:48.759Z,10.9
2023-04-15T10:13:49.374Z,12.2
2023-04-15T10:14:49.983Z,12.8
2023-04-15T10:15:50.613Z,11.9
2023-04-15T10:16:51.179Z,11.9
2023-04-15T10:17:51.831Z,12.1
2023-04-15T10:18:52.397Z,11.6
2023-04-15T10:19:53.003Z,12.2
2023-04-15T10:20:53.599Z,13.1
2023-04-15T10:21:54.198Z,12.4
2023-04-15T10:22:54.805Z,11.8
2023-04-15T10:23:55.404Z,11.9
2023-04-15T10:24:56.053Z,12.7
2023-04-15T10:25:56.624Z,12.7
2023-04-15T10:26:57.241Z,13.9
2023-04-15T10:27:57.825Z,13.3
2023-04-15T10:28:59.021Z,13.1
2023-04-15T10:30:00.031Z,12.6
2023-04-15T10:31:00.646Z,12.0
2023-04-15T10:32:01.224Z,13.4
2023-04-15T10:33:01.978Z,13.5
2023-04-15T10:34:02.575Z,13.2
2023-04-15T10:35:03.249Z,13.4
2023-04-15T10:36:03.852Z,13.6
2023-04-15T10:37:04.463Z,12.5
2023-04-15T10:38:05.075Z,12.4
2023-04-15T10:39:05.679Z,12.8
2023-04-15T10:40:06.297Z,12.0
2023-04-15T10:41:06.897Z,12.2
2023-04-15T10:42:07.511Z,13.2
2023-04-15T10:43:08.115Z,13.4
2023-04-15T10:44:08.715Z,12.5
2023-04-15T10:45:09.315Z,12.5
2023-04-15T10:46:09.968Z,12.6
2023-04-15T10:47:10.529Z,12.9
2023-04-15T10:48:11.149Z,11.8
2023-04-15T10:49:11.727Z,11.8
2023-04-15T10:50:12.359Z,12.2
2023-04-15T10:51:12.946Z,12.1
2023-04-15T10:52:13.549Z,11.8
2023-04-15T10:53:14.147Z,13.0
2023-04-15T10:54:14.742Z,11.5
2023-04-15T10:55:15.344Z,12.1
2023-04-15T10:56:15.958Z,12.1
2023-04-15T10:57:16.553Z,12.0
2023-04-15T10:58:17.146Z,12.5
2023-04-15T10:59:17.762Z,12.4
2023-04-15T11:00:18.347Z,11.4
2023-04-15T11:01:18.974Z,11.8
2023-04-15T11:02:19.717Z,12.4
2023-04-15T11:03:20.332Z,11.9
2023-04-15T11:04:21.030Z,12.5
2023-04-15T11:05:21.589Z,11.9
2023-04-15T11:06:22.183Z,11.9
2023-04-15T11:07:22.784Z,12.7
2023-04-15T11:08:23.386Z,12.2
2023-04-15T11:09:23.983Z,11.1
2023-04-15T11:10:24.583Z,12.2
2023-04-15T11:11:25.208Z,12.1
2023-04-15T11:12:25.830Z,11.5
2023-04-15T11:13:26.448Z,12.1
2023-04-15T11:14:27.051Z,11.4
2023-04-15T11:15:27.646Z,11.3
2023-04-15T11:16:28.272Z,11.9
2023-04-15T11:17:28.949Z,10.7
2023-04-15T11:18:29.472Z,10.3
2023-04-15T11:19:30.070Z,10.9
2023-04-15T11:20:30.697Z,10.6
2023-04-15T11:21:31.297Z,10.9
2023-04-15T11:22:31.899Z,11.2
2023-04-15T11:23:32.516Z,11.0
2023-04-15T11:24:33.125Z,10.3
2023-04-15T11:25:33.727Z,10.5
2023-04-15T11:26:34.343Z,10.8
2023-04-15T11:27:34.960Z,10.8
2023-04-15T11:28:36.761Z,10.7
2023-04-15T11:29:37.152Z,10.2
2023-04-15T11:30:37.770Z,10.5
2023-04-15T11:31:38.409Z,9.8
2023-04-15T11:32:39.019Z,9.6
2023-04-15T11:33:39.593Z,10.0
2023-04-15T11:34:40.189Z,10.0
2023-04-15T11:35:40.786Z,10.8
2023-04-15T11:36:41.389Z,10.2
2023-04-15T11:37:41.994Z,10.0
2023-04-15T11:38:42.609Z,9.8
2023-04-15T11:39:43.208Z,9.8
2023-04-15T11:40:46.108Z,10.1
2023-04-15T11:41:44.447Z,10.0
2023-04-15T11:42:50.009Z,10.3
2023-04-15T11:43:46.644Z,9.5
2023-04-15T11:44:47.244Z,10.2
2023-04-15T11:45:47.897Z,9.9
2023-04-15T11:46:48.476Z,9.5
2023-04-15T11:47:49.113Z,9.6
2023-04-15T11:48:49.782Z,9.3
2023-04-15T11:49:50.304Z,9.3
2023-04-15T11:50:50.906Z,9.3
2023-04-15T11:51:51.507Z,9.9
2023-04-15T11:52:52.129Z,9.2
2023-04-15T11:53:52.728Z,9.9
2023-04-15T11:54:53.330Z,9.5
2023-04-15T11:55:53.941Z,10.1
2023-04-15T11:56:54.549Z,10.4
2023-04-15T11:57:55.166Z,10.5
2023-04-15T11:58:55.765Z,10.3
2023-04-15T11:59:56.360Z,10.2
2023-04-15T12:00:57.058Z,10.5
2023-04-15T12:01:57.640Z,11.1
2023-04-15T12:02:58.320Z,10.6
2023-04-15T12:03:59.034Z,11.1
2023-04-15T12:04:59.691Z,11.1
2023-04-15T12:06:00.256Z,11.0
2023-04-15T12:07:00.876Z,10.5
2023-04-15T12:08:01.481Z,10.3
2023-04-15T12:09:02.084Z,11.1
2023-04-15T12:10:02.686Z,11.3
2023-04-15T12:11:03.281Z,10.9
2023-04-15T12:12:03.895Z,11.2
2023-04-15T12:13:04.505Z,10.9
2023-04-15T12:14:05.336Z,11.3
2023-04-15T12:15:06.101Z,11.2
2023-04-15T12:16:06.743Z,11.1
2023-04-15T12:17:07.321Z,11.6
2023-04-15T12:18:07.983Z,12.1
2023-04-15T12:19:08.572Z,11.4
2023-04-15T12:20:09.171Z,11.9
2023-04-15T12:21:09.772Z,11.6
2023-04-15T12:22:10.368Z,12.7
2023-04-15T12:23:10.968Z,11.4
2023-04-15T12:24:11.567Z,13.1
2023-04-15T12:25:12.172Z,13.0
2023-04-15T12:26:12.793Z,12.8
2023-04-15T12:27:13.393Z,13.0
2023-04-15T12:28:14.024Z,13.6
2023-04-15T12:29:14.610Z,12.7
2023-04-15T12:30:15.211Z,13.0
2023-04-15T12:31:15.844Z,13.8
2023-04-15T12:32:16.419Z,13.6
2023-04-15T12:33:17.063Z,13.3
2023-04-15T12:34:17.646Z,13.8
2023-04-15T12:35:18.239Z,13.2
2023-04-15T12:36:18.848Z,13.2
2023-04-15T12:37:19.466Z,13.1
2023-04-15T12:38:20.063Z,13.4
2023-04-15T12:39:20.690Z,13.4
2023-04-15T12:40:21.305Z,13.7
2023-04-15T12:41:21.928Z,13.3
2023-04-15T12:42:22.531Z,13.7
2023-04-15T12:43:23.127Z,14.5
2023-04-15T12:44:23.732Z,15.1
2023-04-15T12:45:24.357Z,14.2
2023-04-15T12:46:24.979Z,13.8
2023-04-15T12:47:25.599Z,14.7
2023-04-15T12:48:26.199Z,14.1
2023-04-15T12:49:26.801Z,14.7
2023-04-15T12:50:27.420Z,13.8
2023-04-15T12:51:28.039Z,14.9
2023-04-15T12:52:28.643Z,14.3
2023-04-15T12:53:29.245Z,14.4
2023-04-15T12:54:29.865Z,14.6
2023-04-15T12:55:30.468Z,14.4
2023-04-15T12:56:31.083Z,15.4
2023-04-15T12:57:31.685Z,15.3
2023-04-15T12:58:32.285Z,15.6
2023-04-15T12:59:32.889Z,14.6
2023-04-15T13:00:33.489Z,14.9
2023-04-15T13:01:34.128Z,15.6
2023-04-15T13:02:35.014Z,15.7
2023-04-15T13:03:35.966Z,16.1
2023-04-15T13:04:36.714Z,16.5
2023-04-15T13:05:37.245Z,16.2
2023-04-15T13:06:37.847Z,16.7
2023-04-15T13:07:38.451Z,16.2
2023-04-15T13:08:42.714Z,18.3
2023-04-15T13:09:39.660Z,18.0
2023-04-15T13:10:40.261Z,17.7
2023-04-15T13:11:40.931Z,18.0
2023-04-15T13:12:41.479Z,19.5
2023-04-15T13:13:42.106Z,18.0
2023-04-15T13:14:42.702Z,18.0
2023-04-15T13:15:43.427Z,18.4
2023-04-15T13:16:44.027Z,18.9
2023-04-15T13:17:44.693Z,19.4
2023-04-15T13:18:45.251Z,18.6
2023-04-15T13:19:45.843Z,18.9
2023-04-15T13:20:46.451Z,18.4
2023-04-15T13:21:47.060Z,18.5
2023-04-15T13:22:47.683Z,19.3
2023-04-15T13:23:48.285Z,19.1
2023-04-15T13:24:48.887Z,19.0
2023-04-15T13:25:49.487Z,20.4
2023-04-15T13:26:50.516Z,20.4
2023-04-15T13:27:50.703Z,19.8
2023-04-15T13:28:51.346Z,19.8
2023-04-15T13:29:51.954Z,20.7
2023-04-15T13:30:52.547Z,20.6
2023-04-15T13:31:53.183Z,19.8